Time;durP1;ratioP1;P1;durP2;ratioP2;P2;SDS_P1;SDS_P2;PMS_P1;PMS_P2;Temp;Humidity;BMP_temperature;BMP_pressure;BME280_temperature;BME280_humidity;BME280_pressure;Samples;Min_cycle;Max_cycle;Signal;HPM_P1;HPM_P2
2021/09/08 00:02:19;;;;;;;12.82;9.85;;;;;;;;;;4768430;30;20544;-87
2021/09/08 00:04:45;;;;;;;15.90;10.77;;;;;;;;;;4767631;30;20126;-86
2021/09/08 00:07:10;;;;;;;14.77;10.68;;;;;;;;;;4754117;30;20027;-87
2021/09/08 00:09:36;;;;;;;14.93;11.07;;;;;;;;;;4753382;30;20043;-87
2021/09/08 00:12:01;;;;;;;18.23;12.18;;;;;;;;;;4740873;30;20095;-86
2021/09/08 00:14:27;;;;;;;15.23;10.65;;;;;;;;;;4748247;30;20069;-86
2021/09/08 00:16:52;;;;;;;17.05;11.00;;;;;;;;;;4753694;30;20441;-86
2021/09/08 00:19:18;;;;;;;17.08;11.50;;;;;;;;;;4763779;30;20050;-86
2021/09/08 00:21:43;;;;;;;15.57;10.95;;;;;;;;;;4743463;30;20039;-86
2021/09/08 00:24:09;;;;;;;17.65;12.38;;;;;;;;;;4749142;30;20178;-86
2021/09/08 00:26:34;;;;;;;17.00;12.02;;;;;;;;;;4744760;30;20047;-87
2021/09/08 00:28:59;;;;;;;16.38;11.93;;;;;;;;;;4752487;30;20043;-87
2021/09/08 00:31:25;;;;;;;16.60;11.15;;;;;;;;;;4753981;30;20028;-86
2021/09/08 00:33:50;;;;;;;15.32;11.35;;;;;;;;;;4743099;30;20046;-86
2021/09/08 00:36:16;;;;;;;19.10;11.93;;;;;;;;;;4754294;30;20044;-87
2021/09/08 00:38:41;;;;;;;16.67;12.32;;;;;;;;;;4741304;30;20100;-85
2021/09/08 00:41:07;;;;;;;18.00;11.57;;;;;;;;;;4770698;30;20035;-87
2021/09/08 00:43:32;;;;;;;15.18;12.02;;;;;;;;;;4769959;30;20111;-86
2021/09/08 00:45:58;;;;;;;16.63;12.23;;;;;;;;;;4768714;30;20051;-86
2021/09/08 00:48:23;;;;;;;16.58;11.45;;;;;;;;;;4753536;30;20035;-86
2021/09/08 00:50:50;;;;;;;18.35;11.45;;;;;;;;;;4749649;30;20488;-86
2021/09/08 00:53:17;;;;;;;17.65;12.60;;;;;;;;;;4767777;30;20075;-86
2021/09/08 00:55:47;;;;;;;19.08;12.25;;;;;;;;;;4758353;30;20059;-87
2021/09/08 00:58:12;;;;;;;15.82;11.77;;;;;;;;;;4764793;30;20628;-86
2021/09/08 01:00:38;;;;;;;16.88;11.63;;;;;;;;;;4752316;30;20144;-87
2021/09/08 01:03:04;;;;;;;18.92;11.75;;;;;;;;;;4766331;30;20134;-87
2021/09/08 01:05:29;;;;;;;17.40;12.55;;;;;;;;;;4764906;30;20032;-87
2021/09/08 01:07:56;;;;;;;16.48;11.73;;;;;;;;;;4767391;30;20043;-86
2021/09/08 01:10:28;;;;;;;16.95;12.57;;;;;;;;;;4750261;30;20134;-86
2021/09/08 01:12:56;;;;;;;16.65;12.48;;;;;;;;;;4754223;30;20039;-87
2021/09/08 01:15:21;;;;;;;18.23;12.02;;;;;;;;;;4756046;30;20039;-86
2021/09/08 01:17:46;;;;;;;17.35;11.88;;;;;;;;;;4766872;30;20028;-86
2021/09/08 01:20:13;;;;;;;19.80;11.95;;;;;;;;;;4767333;30;20119;-86
2021/09/08 01:22:57;;;;;;;16.75;11.85;;;;;;;;;;4769878;30;20093;-87
2021/09/08 01:25:24;;;;;;;18.83;12.23;;;;;;;;;;4770805;30;20870;-86
2021/09/08 01:27:52;;;;;;;17.38;12.52;;;;;;;;;;4753353;30;20484;-86
2021/09/08 01:30:20;;;;;;;18.75;13.13;;;;;;;;;;4766711;30;20061;-86
2021/09/08 01:32:47;;;;;;;17.73;12.20;;;;;;;;;;4765569;30;20122;-86
2021/09/08 01:35:13;;;;;;;18.17;12.98;;;;;;;;;;4766516;30;20114;-86
2021/09/08 01:37:38;;;;;;;16.70;12.35;;;;;;;;;;4766905;30;20123;-87
2021/09/08 01:40:04;;;;;;;17.17;12.48;;;;;;;;;;4748094;30;20047;-86
2021/09/08 01:42:30;;;;;;;19.13;12.57;;;;;;;;;;4769242;30;20048;-87
2021/09/08 01:44:55;;;;;;;18.25;12.38;;;;;;;;;;4739194;30;20091;-87
2021/09/08 01:47:21;;;;;;;16.83;11.95;;;;;;;;;;4767062;30;20042;-87
2021/09/08 01:49:47;;;;;;;18.75;13.07;;;;;;;;;;4743937;30;20031;-86
2021/09/08 01:52:13;;;;;;;17.80;12.73;;;;;;;;;;4737612;30;20060;-86
2021/09/08 01:54:38;;;;;;;18.58;12.35;;;;;;;;;;4763929;30;20052;-86
2021/09/08 01:57:04;;;;;;;18.17;12.75;;;;;;;;;;4738183;30;20445;-86
2021/09/08 01:59:29;;;;;;;16.30;12.10;;;;;;;;;;4746643;30;20075;-87
2021/09/08 02:01:54;;;;;;;16.42;12.40;;;;;;;;;;4740138;30;20036;-86
2021/09/08 02:04:20;;;;;;;16.80;11.80;;;;;;;;;;4755004;30;20050;-86
2021/09/08 02:06:50;;;;;;;16.13;12.15;;;;;;;;;;4741490;30;20619;-87
2021/09/08 02:09:17;;;;;;;16.98;12.23;;;;;;;;;;4754596;30;20031;-86
2021/09/08 02:11:43;;;;;;;16.10;11.73;;;;;;;;;;4756300;30;20043;-86
2021/09/08 02:14:08;;;;;;;17.77;12.00;;;;;;;;;;4765430;30;20046;-87
2021/09/08 02:16:34;;;;;;;17.13;12.25;;;;;;;;;;4756890;30;20032;-86
2021/09/08 02:18:59;;;;;;;17.90;12.32;;;;;;;;;;4755468;30;20032;-86
2021/09/08 02:21:25;;;;;;;16.67;11.93;;;;;;;;;;4774520;30;20386;-86
2021/09/08 02:23:50;;;;;;;18.60;12.40;;;;;;;;;;4754846;30;20039;-86
2021/09/08 02:26:16;;;;;;;18.08;12.50;;;;;;;;;;4756842;30;20048;-86
2021/09/08 02:28:41;;;;;;;18.02;12.90;;;;;;;;;;4755672;30;20071;-86
2021/09/08 02:31:07;;;;;;;17.40;12.25;;;;;;;;;;4753798;30;20123;-86
2021/09/08 02:33:33;;;;;;;17.73;11.98;;;;;;;;;;4770978;30;20039;-86
2021/09/08 02:35:59;;;;;;;19.70;12.05;;;;;;;;;;4755782;30;20065;-85
2021/09/08 02:38:24;;;;;;;19.98;12.27;;;;;;;;;;4772742;30;20027;-86
2021/09/08 02:40:49;;;;;;;19.65;12.00;;;;;;;;;;4768356;30;20131;-86
2021/09/08 02:43:15;;;;;;;17.08;12.32;;;;;;;;;;4760273;30;20043;-86
2021/09/08 02:45:41;;;;;;;17.70;12.65;;;;;;;;;;4770337;30;20115;-86
2021/09/08 02:48:06;;;;;;;16.13;12.07;;;;;;;;;;4756191;30;20039;-86
2021/09/08 02:50:32;;;;;;;20.25;12.65;;;;;;;;;;4754549;30;20089;-87
2021/09/08 02:52:57;;;;;;;16.90;12.27;;;;;;;;;;4770321;30;20108;-85
2021/09/08 02:55:22;;;;;;;20.00;13.05;;;;;;;;;;4751777;30;20123;-86
2021/09/08 02:57:48;;;;;;;17.52;12.70;;;;;;;;;;4755859;30;20108;-86
2021/09/08 03:00:14;;;;;;;17.98;12.75;;;;;;;;;;4747198;30;20039;-87
2021/09/08 03:02:39;;;;;;;19.65;12.73;;;;;;;;;;4767137;30;20048;-87
2021/09/08 03:05:05;;;;;;;18.48;12.77;;;;;;;;;;4747785;30;20046;-86
2021/09/08 03:07:31;;;;;;;17.88;12.63;;;;;;;;;;4772217;30;20043;-87
2021/09/08 03:09:56;;;;;;;18.63;12.65;;;;;;;;;;4784517;29;20028;-88
2021/09/08 03:12:22;;;;;;;18.55;12.52;;;;;;;;;;4755507;30;20039;-87
2021/09/08 03:14:47;;;;;;;19.48;12.82;;;;;;;;;;4762068;30;20040;-86
2021/09/08 03:17:12;;;;;;;18.70;12.20;;;;;;;;;;4750841;30;20035;-86
2021/09/08 03:19:38;;;;;;;20.50;13.23;;;;;;;;;;4755847;30;20047;-86
2021/09/08 03:22:03;;;;;;;16.83;11.68;;;;;;;;;;4753339;30;20062;-86
2021/09/08 03:24:29;;;;;;;17.73;13.27;;;;;;;;;;4740183;30;20685;-86
2021/09/08 03:26:54;;;;;;;19.05;12.60;;;;;;;;;;4741570;30;20639;-87
2021/09/08 03:29:20;;;;;;;19.25;12.82;;;;;;;;;;4754425;30;20041;-86
2021/09/08 03:31:46;;;;;;;18.83;12.38;;;;;;;;;;4751862;30;20031;-86
2021/09/08 03:34:12;;;;;;;18.55;12.73;;;;;;;;;;4752500;30;20091;-87
2021/09/08 03:36:37;;;;;;;19.25;12.32;;;;;;;;;;4754226;30;20039;-86
2021/09/08 03:39:03;;;;;;;16.83;12.65;;;;;;;;;;4735733;30;20047;-86
2021/09/08 03:41:28;;;;;;;19.45;12.50;;;;;;;;;;4747052;30;20035;-86
2021/09/08 03:43:54;;;;;;;20.67;13.07;;;;;;;;;;4765968;30;20397;-86
2021/09/08 03:46:19;;;;;;;25.02;12.68;;;;;;;;;;4764083;30;20035;-87
2021/09/08 03:48:44;;;;;;;18.08;13.15;;;;;;;;;;4754281;30;20146;-86
2021/09/08 03:51:10;;;;;;;18.35;13.02;;;;;;;;;;4742265;30;20027;-86
2021/09/08 03:53:36;;;;;;;18.27;12.85;;;;;;;;;;4754302;30;20035;-86
2021/09/08 03:56:02;;;;;;;17.42;12.45;;;;;;;;;;4750842;30;20035;-85
2021/09/08 03:58:27;;;;;;;20.17;13.15;;;;;;;;;;4755988;30;20040;-86
2021/09/08 04:00:52;;;;;;;20.13;13.15;;;;;;;;;;4736483;30;20039;-86
2021/09/08 04:03:18;;;;;;;18.02;12.77;;;;;;;;;;4756114;30;20039;-87
2021/09/08 04:05:43;;;;;;;20.25;13.43;;;;;;;;;;4755507;30;20449;-87
2021/09/08 04:08:09;;;;;;;19.98;13.77;;;;;;;;;;4754604;30;20176;-86
2021/09/08 04:10:34;;;;;;;18.65;13.10;;;;;;;;;;4768838;30;20039;-86
2021/09/08 04:13:00;;;;;;;18.10;13.30;;;;;;;;;;4753434;30;20057;-86
2021/09/08 04:15:25;;;;;;;16.58;12.25;;;;;;;;;;4757484;30;20518;-86
2021/09/08 04:17:51;;;;;;;19.55;13.50;;;;;;;;;;4734037;30;20027;-86
2021/09/08 04:20:16;;;;;;;19.52;13.20;;;;;;;;;;4724941;30;20409;-85
2021/09/08 04:22:42;;;;;;;18.02;13.57;;;;;;;;;;4753467;30;20127;-87
2021/09/08 04:25:08;;;;;;;20.95;13.75;;;;;;;;;;4765841;30;20034;-86
2021/09/08 04:27:33;;;;;;;21.80;13.88;;;;;;;;;;4755461;30;20077;-87
2021/09/08 04:29:59;;;;;;;22.10;14.02;;;;;;;;;;4738443;30;20067;-87
2021/09/08 04:32:24;;;;;;;21.48;13.65;;;;;;;;;;4751826;30;20492;-87
2021/09/08 04:34:50;;;;;;;20.75;14.00;;;;;;;;;;4750142;30;20105;-87
2021/09/08 04:37:15;;;;;;;20.92;13.77;;;;;;;;;;4753935;30;20063;-86
2021/09/08 04:39:43;;;;;;;21.23;13.77;;;;;;;;;;4751229;30;20496;-86
2021/09/08 04:42:09;;;;;;;20.58;14.27;;;;;;;;;;4740825;30;20193;-86
2021/09/08 04:44:34;;;;;;;19.48;12.82;;;;;;;;;;4754308;30;20075;-86
2021/09/08 04:47:00;;;;;;;21.25;13.45;;;;;;;;;;4769118;30;20122;-86
2021/09/08 04:49:25;;;;;;;17.80;13.32;;;;;;;;;;4748409;30;20043;-85
2021/09/08 04:51:51;;;;;;;18.88;13.70;;;;;;;;;;4752345;30;20060;-85
2021/09/08 04:54:16;;;;;;;18.73;13.45;;;;;;;;;;4749785;30;20036;-86
2021/09/08 04:56:42;;;;;;;20.10;14.05;;;;;;;;;;4746779;30;20122;-85
2021/09/08 04:59:07;;;;;;;20.42;13.68;;;;;;;;;;4769963;30;20047;-87
2021/09/08 05:01:33;;;;;;;19.77;13.20;;;;;;;;;;4762894;30;20084;-86
2021/09/08 05:03:59;;;;;;;20.33;13.70;;;;;;;;;;4766532;30;20070;-87
2021/09/08 05:06:24;;;;;;;20.15;13.13;;;;;;;;;;4767906;30;20599;-86
2021/09/08 05:08:49;;;;;;;22.98;13.93;;;;;;;;;;4762858;30;20396;-86
2021/09/08 05:11:15;;;;;;;20.73;13.93;;;;;;;;;;4753691;30;20068;-87
2021/09/08 05:14:00;;;;;;;21.48;14.02;;;;;;;;;;4758952;30;20047;-86
2021/09/08 05:16:25;;;;;;;21.65;13.05;;;;;;;;;;4768723;30;20497;-86
2021/09/08 05:18:51;;;;;;;19.17;13.85;;;;;;;;;;4737896;30;20099;-86
2021/09/08 05:21:16;;;;;;;20.58;13.57;;;;;;;;;;4733087;30;20031;-86
2021/09/08 05:23:41;;;;;;;20.33;13.90;;;;;;;;;;4751016;30;20433;-86
2021/09/08 05:26:07;;;;;;;23.33;13.45;;;;;;;;;;4739157;30;20067;-85
2021/09/08 05:28:52;;;;;;;21.10;14.05;;;;;;;;;;4751821;30;20035;-86
2021/09/08 05:31:17;;;;;;;20.73;14.10;;;;;;;;;;4762610;30;20028;-87
2021/09/08 05:33:43;;;;;;;21.80;14.45;;;;;;;;;;4736800;30;20743;-86
2021/09/08 05:36:21;;;;;;;22.85;13.43;;;;;;;;;;4766392;30;20043;-85
2021/09/08 05:38:46;;;;;;;22.33;14.18;;;;;;;;;;4766337;30;20447;-85
2021/09/08 05:41:13;;;;;;;22.20;14.48;;;;;;;;;;4759783;30;20126;-85
2021/09/08 05:43:42;;;;;;;22.90;14.52;;;;;;;;;;4754190;30;20183;-85
2021/09/08 05:46:07;;;;;;;24.00;15.05;;;;;;;;;;4750166;30;20488;-87
2021/09/08 05:48:33;;;;;;;20.25;14.18;;;;;;;;;;4748376;30;20040;-86
2021/09/08 05:51:00;;;;;;;18.77;14.20;;;;;;;;;;4748700;30;20131;-86
2021/09/08 05:53:25;;;;;;;20.95;14.30;;;;;;;;;;4752891;30;20039;-87
2021/09/08 05:55:53;;;;;;;21.58;14.70;;;;;;;;;;4757346;30;20046;-86
2021/09/08 05:58:19;;;;;;;22.00;14.13;;;;;;;;;;4754147;30;20047;-87
2021/09/08 06:00:44;;;;;;;22.00;14.60;;;;;;;;;;4751579;30;20054;-85
2021/09/08 06:03:10;;;;;;;22.48;15.55;;;;;;;;;;4739858;30;21793;-87
2021/09/08 06:05:35;;;;;;;21.17;14.57;;;;;;;;;;4757341;30;20143;-86
2021/09/08 06:08:00;;;;;;;20.92;15.18;;;;;;;;;;4751268;30;20070;-86
2021/09/08 06:10:26;;;;;;;21.40;15.23;;;;;;;;;;4736577;30;20128;-86
2021/09/08 06:12:51;;;;;;;23.15;15.05;;;;;;;;;;4750537;30;20067;-87
2021/09/08 06:15:17;;;;;;;22.90;14.98;;;;;;;;;;4766927;30;20055;-86
2021/09/08 06:17:43;;;;;;;22.55;15.43;;;;;;;;;;4749731;30;20057;-84
2021/09/08 06:20:09;;;;;;;23.20;14.60;;;;;;;;;;4763914;30;20100;-83
2021/09/08 06:22:34;;;;;;;17.98;14.10;;;;;;;;;;4765147;30;20045;-83
2021/09/08 06:25:00;;;;;;;21.42;14.55;;;;;;;;;;4773109;30;20058;-82
2021/09/08 06:27:25;;;;;;;21.55;14.85;;;;;;;;;;4766594;30;20027;-81
2021/09/08 06:29:50;;;;;;;21.52;15.45;;;;;;;;;;4767027;30;20106;-83
2021/09/08 06:32:16;;;;;;;21.15;14.00;;;;;;;;;;4766709;30;20115;-83
2021/09/08 06:34:45;;;;;;;21.23;14.27;;;;;;;;;;4754380;30;20062;-83
2021/09/08 06:37:11;;;;;;;24.40;14.43;;;;;;;;;;4738066;30;20071;-83
2021/09/08 06:39:37;;;;;;;19.02;13.93;;;;;;;;;;4741937;30;20036;-83
2021/09/08 06:42:03;;;;;;;20.23;13.90;;;;;;;;;;4766640;30;20044;-82
2021/09/08 06:44:29;;;;;;;23.75;13.82;;;;;;;;;;4740126;30;20036;-81
2021/09/08 06:46:54;;;;;;;19.42;13.88;;;;;;;;;;4755744;30;20101;-83
2021/09/08 06:49:20;;;;;;;21.05;13.90;;;;;;;;;;4757477;30;20058;-83
2021/09/08 06:51:46;;;;;;;21.27;14.57;;;;;;;;;;4768705;30;20067;-82
2021/09/08 06:54:11;;;;;;;22.27;14.50;;;;;;;;;;4755699;30;20119;-83
2021/09/08 06:56:36;;;;;;;21.38;14.32;;;;;;;;;;4770781;30;20144;-83
2021/09/08 06:59:02;;;;;;;21.02;14.10;;;;;;;;;;4771526;30;20040;-83
2021/09/08 07:01:27;;;;;;;21.58;13.52;;;;;;;;;;4768714;30;20028;-83
2021/09/08 07:03:53;;;;;;;22.38;14.00;;;;;;;;;;4755599;30;20038;-81
2021/09/08 07:06:22;;;;;;;23.40;13.88;;;;;;;;;;4770778;30;20412;-83
2021/09/08 07:08:48;;;;;;;20.67;13.63;;;;;;;;;;4779444;30;20046;-83
2021/09/08 07:11:14;;;;;;;20.55;13.98;;;;;;;;;;4757235;30;20071;-83
2021/09/08 07:13:39;;;;;;;18.88;12.93;;;;;;;;;;4768933;30;20047;-83
2021/09/08 07:16:05;;;;;;;20.75;14.02;;;;;;;;;;4765509;30;20043;-83
2021/09/08 07:18:30;;;;;;;20.27;13.65;;;;;;;;;;4751287;30;20044;-83
2021/09/08 07:20:55;;;;;;;22.15;13.23;;;;;;;;;;4748462;30;20074;-83
2021/09/08 07:23:21;;;;;;;20.85;13.68;;;;;;;;;;4753163;30;20043;-83
2021/09/08 07:25:46;;;;;;;19.83;14.32;;;;;;;;;;4782345;30;20073;-83
2021/09/08 07:28:12;;;;;;;19.25;13.52;;;;;;;;;;4758945;30;20063;-82
2021/09/08 07:30:37;;;;;;;19.08;12.77;;;;;;;;;;4757311;30;20085;-83
2021/09/08 07:33:03;;;;;;;20.88;13.65;;;;;;;;;;4759357;30;20043;-83
2021/09/08 07:35:28;;;;;;;23.40;13.60;;;;;;;;;;4743674;30;20060;-84
2021/09/08 07:37:55;;;;;;;19.58;12.45;;;;;;;;;;4740927;30;20073;-83
2021/09/08 07:40:21;;;;;;;18.23;12.52;;;;;;;;;;4772668;30;20177;-83
2021/09/08 07:42:46;;;;;;;18.67;13.25;;;;;;;;;;4759190;30;20798;-83
2021/09/08 07:45:12;;;;;;;17.73;12.15;;;;;;;;;;4774724;30;20066;-83
2021/09/08 07:47:37;;;;;;;18.58;12.35;;;;;;;;;;4760886;30;20472;-81
2021/09/08 07:50:03;;;;;;;19.98;12.88;;;;;;;;;;4751717;30;20476;-82
2021/09/08 07:52:29;;;;;;;20.00;12.40;;;;;;;;;;4772893;30;20056;-83
2021/09/08 07:54:54;;;;;;;20.23;12.85;;;;;;;;;;4752971;30;20048;-83
2021/09/08 07:57:20;;;;;;;18.45;13.10;;;;;;;;;;4741657;30;20590;-83
2021/09/08 07:59:45;;;;;;;19.60;12.68;;;;;;;;;;4771625;30;20043;-83
2021/09/08 08:02:12;;;;;;;17.42;12.10;;;;;;;;;;4741806;30;20043;-81
2021/09/08 08:04:37;;;;;;;16.77;12.15;;;;;;;;;;4772349;30;20088;-83
2021/09/08 08:07:03;;;;;;;19.77;12.18;;;;;;;;;;4730412;30;20467;-81
2021/09/08 08:09:28;;;;;;;18.88;12.30;;;;;;;;;;4771418;30;20036;-84
2021/09/08 08:11:54;;;;;;;19.70;12.13;;;;;;;;;;4759089;30;20950;-81
2021/09/08 08:14:19;;;;;;;16.70;12.25;;;;;;;;;;4770994;30;20063;-83
2021/09/08 08:16:45;;;;;;;18.75;11.98;;;;;;;;;;4740582;30;20086;-82
2021/09/08 08:19:10;;;;;;;18.45;11.60;;;;;;;;;;4755547;30;20799;-83
2021/09/08 08:21:35;;;;;;;21.40;12.20;;;;;;;;;;4765459;30;20039;-83
2021/09/08 08:24:01;;;;;;;17.42;11.35;;;;;;;;;;4730739;30;20816;-83
2021/09/08 08:26:27;;;;;;;18.27;11.73;;;;;;;;;;4770622;30;20028;-84
2021/09/08 08:28:53;;;;;;;18.27;12.40;;;;;;;;;;4755080;30;20067;-83
2021/09/08 08:31:19;;;;;;;16.83;11.43;;;;;;;;;;4762722;30;20039;-84
2021/09/08 08:33:46;;;;;;;16.60;11.50;;;;;;;;;;4738894;30;20056;-82
2021/09/08 08:36:12;;;;;;;20.42;12.02;;;;;;;;;;4757767;30;20074;-83
2021/09/08 08:38:40;;;;;;;22.50;12.50;;;;;;;;;;4773021;30;20056;-82
2021/09/08 08:41:05;;;;;;;17.42;12.18;;;;;;;;;;4746300;30;20040;-83
2021/09/08 08:43:31;;;;;;;17.50;12.38;;;;;;;;;;4774150;30;20092;-82
2021/09/08 08:45:58;;;;;;;21.67;11.98;;;;;;;;;;4757955;30;20113;-83
2021/09/08 08:48:24;;;;;;;19.15;11.07;;;;;;;;;;4758776;30;20465;-83
2021/09/08 08:50:49;;;;;;;18.30;12.00;;;;;;;;;;4760099;30;20047;-83
2021/09/08 08:53:15;;;;;;;18.00;11.00;;;;;;;;;;4747762;30;20070;-82
2021/09/08 08:55:40;;;;;;;18.63;12.00;;;;;;;;;;4778198;30;20063;-83
2021/09/08 08:58:06;;;;;;;17.13;11.43;;;;;;;;;;4764961;30;20077;-83
2021/09/08 09:00:33;;;;;;;20.27;11.13;;;;;;;;;;4758789;30;20047;-82
2021/09/08 09:02:59;;;;;;;17.25;11.27;;;;;;;;;;4772744;30;20036;-83
2021/09/08 09:05:31;;;;;;;16.92;10.93;;;;;;;;;;4772436;30;20123;-83
2021/09/08 09:07:57;;;;;;;19.80;12.20;;;;;;;;;;4772802;30;20403;-84
2021/09/08 09:10:23;;;;;;;17.27;11.93;;;;;;;;;;4776616;30;20036;-83
2021/09/08 09:12:48;;;;;;;21.00;11.93;;;;;;;;;;4772112;30;20042;-82
2021/09/08 09:15:16;;;;;;;21.58;11.60;;;;;;;;;;4759595;30;20040;-85
2021/09/08 09:17:43;;;;;;;20.90;11.93;;;;;;;;;;4772744;30;20535;-84
2021/09/08 09:20:17;;;;;;;15.90;10.65;;;;;;;;;;4755846;30;20060;-84
2021/09/08 09:22:52;;;;;;;17.15;11.52;;;;;;;;;;4766978;30;20027;-84
2021/09/08 09:25:21;;;;;;;14.65;10.75;;;;;;;;;;4772674;30;20043;-82
2021/09/08 09:27:53;;;;;;;18.98;11.38;;;;;;;;;;4771948;30;20369;-82
2021/09/08 09:30:23;;;;;;;18.00;11.70;;;;;;;;;;4768589;30;20392;-84
2021/09/08 09:32:51;;;;;;;16.95;11.85;;;;;;;;;;4772888;30;20058;-84
2021/09/08 09:35:19;;;;;;;17.17;12.05;;;;;;;;;;4778145;30;20032;-84
2021/09/08 09:37:47;;;;;;;15.90;10.50;;;;;;;;;;4751217;30;20027;-84
2021/09/08 09:40:14;;;;;;;15.25;10.25;;;;;;;;;;4766769;30;20032;-83
2021/09/08 09:42:45;;;;;;;16.23;11.95;;;;;;;;;;4758347;30;20040;-83
2021/09/08 09:45:12;;;;;;;16.23;10.77;;;;;;;;;;4770842;30;20408;-84
2021/09/08 09:47:40;;;;;;;17.05;11.13;;;;;;;;;;4770497;30;20027;-84
2021/09/08 09:50:09;;;;;;;21.27;11.75;;;;;;;;;;4768650;30;20481;-84
2021/09/08 09:52:35;;;;;;;15.00;10.93;;;;;;;;;;4770870;30;20047;-84
2021/09/08 09:55:05;;;;;;;15.98;10.75;;;;;;;;;;4777009;30;20034;-83
2021/09/08 09:57:31;;;;;;;16.67;10.10;;;;;;;;;;4770322;30;20042;-84
2021/09/08 09:59:58;;;;;;;15.77;10.43;;;;;;;;;;4776961;30;20102;-83
2021/09/08 10:02:25;;;;;;;14.85;10.35;;;;;;;;;;4756518;30;20040;-83
2021/09/08 10:04:50;;;;;;;18.63;10.73;;;;;;;;;;4769157;30;20047;-83
2021/09/08 10:07:18;;;;;;;13.77;10.80;;;;;;;;;;4753695;30;20404;-84
2021/09/08 10:09:49;;;;;;;20.35;11.05;;;;;;;;;;4770605;30;20038;-83
2021/09/08 10:12:16;;;;;;;16.98;10.32;;;;;;;;;;4765461;30;20061;-83
2021/09/08 10:14:44;;;;;;;14.75;10.20;;;;;;;;;;4768491;30;20122;-84
2021/09/08 10:17:10;;;;;;;16.42;11.07;;;;;;;;;;4768337;30;20431;-83
2021/09/08 10:19:39;;;;;;;15.07;10.75;;;;;;;;;;4738440;30;20054;-84
2021/09/08 10:22:10;;;;;;;17.00;10.80;;;;;;;;;;4769742;30;20039;-83
2021/09/08 10:24:42;;;;;;;17.60;11.00;;;;;;;;;;4769375;30;20039;-81
2021/09/08 10:27:22;;;;;;;14.68;9.93;;;;;;;;;;4756465;30;20097;-84
2021/09/08 10:29:50;;;;;;;15.73;11.15;;;;;;;;;;4772957;30;20395;-82
2021/09/08 10:32:17;;;;;;;16.75;10.13;;;;;;;;;;4754600;30;20024;-83
2021/09/08 10:34:43;;;;;;;16.13;10.20;;;;;;;;;;4754245;30;20950;-83
2021/09/08 10:37:11;;;;;;;15.20;10.60;;;;;;;;;;4769111;30;20130;-84
2021/09/08 10:39:37;;;;;;;17.58;11.13;;;;;;;;;;4769881;30;20036;-83
2021/09/08 10:42:02;;;;;;;15.93;10.30;;;;;;;;;;4741046;30;20060;-84
2021/09/08 10:44:50;;;;;;;17.85;11.10;;;;;;;;;;4774451;30;20059;-82
2021/09/08 10:47:37;;;;;;;16.25;10.00;;;;;;;;;;4770482;30;20748;-82
2021/09/08 10:50:06;;;;;;;17.25;10.48;;;;;;;;;;4766096;30;20076;-84
2021/09/08 10:52:42;;;;;;;19.48;10.90;;;;;;;;;;4769752;30;20060;-84
2021/09/08 10:55:20;;;;;;;13.07;10.45;;;;;;;;;;4773487;30;20114;-82
2021/09/08 10:57:48;;;;;;;14.98;10.65;;;;;;;;;;4766446;30;20130;-84
2021/09/08 11:00:36;;;;;;;15.90;10.88;;;;;;;;;;4765519;30;20554;-84
2021/09/08 11:03:04;;;;;;;13.95;9.95;;;;;;;;;;4766104;30;20054;-84
2021/09/08 11:05:29;;;;;;;13.45;9.88;;;;;;;;;;4771053;30;20052;-83
2021/09/08 11:07:54;;;;;;;17.27;11.13;;;;;;;;;;4770365;30;20092;-84
2021/09/08 11:10:32;;;;;;;16.25;10.05;;;;;;;;;;4755558;30;20078;-82
2021/09/08 11:13:02;;;;;;;14.75;10.18;;;;;;;;;;4771642;30;20035;-84
2021/09/08 11:15:36;;;;;;;17.63;10.98;;;;;;;;;;4776286;30;20035;-82
2021/09/08 11:18:10;;;;;;;16.83;10.90;;;;;;;;;;4769274;30;20108;-84
2021/09/08 11:20:36;;;;;;;15.68;10.55;;;;;;;;;;4760701;30;20516;-84
2021/09/08 11:23:06;;;;;;;15.15;10.13;;;;;;;;;;4758849;30;20509;-83
2021/09/08 11:25:34;;;;;;;15.10;9.57;;;;;;;;;;4770062;30;20032;-83
2021/09/08 11:28:01;;;;;;;12.98;9.40;;;;;;;;;;4765926;30;20051;-83
2021/09/08 11:30:35;;;;;;;15.23;9.75;;;;;;;;;;4754195;30;20497;-82
2021/09/08 11:33:02;;;;;;;17.17;9.10;;;;;;;;;;4770219;30;20039;-83
2021/09/08 11:35:48;;;;;;;13.25;8.68;;;;;;;;;;4763152;30;20401;-83
2021/09/08 11:38:21;;;;;;;13.13;9.15;;;;;;;;;;4773213;30;20027;-83
2021/09/08 11:40:50;;;;;;;13.48;8.60;;;;;;;;;;4768899;30;20039;-83
2021/09/08 11:43:39;;;;;;;13.05;8.27;;;;;;;;;;4771431;29;20400;-83
2021/09/08 11:46:18;;;;;;;14.20;9.25;;;;;;;;;;4786481;30;20112;-83
2021/09/08 11:48:46;;;;;;;14.95;9.25;;;;;;;;;;4780111;29;20484;-84
2021/09/08 11:51:13;;;;;;;11.98;8.70;;;;;;;;;;4757692;30;20076;-84
2021/09/08 11:53:38;;;;;;;14.77;9.65;;;;;;;;;;4766528;30;20039;-83
2021/09/08 11:56:16;;;;;;;13.40;9.02;;;;;;;;;;4759262;30;20035;-82
2021/09/08 11:58:43;;;;;;;16.02;9.85;;;;;;;;;;4775704;30;20407;-84
2021/09/08 12:01:10;;;;;;;15.18;9.73;;;;;;;;;;4772866;30;20028;-83
2021/09/08 12:03:42;;;;;;;11.13;8.88;;;;;;;;;;4773650;30;20066;-84
2021/09/08 12:06:14;;;;;;;14.77;9.70;;;;;;;;;;4758222;30;20027;-83
2021/09/08 12:09:09;;;;;;;11.75;8.98;;;;;;;;;;4773743;30;20039;-83
2021/09/08 12:11:39;;;;;;;17.45;8.68;;;;;;;;;;4772083;30;20105;-84
2021/09/08 12:14:23;;;;;;;12.70;8.98;;;;;;;;;;4777223;30;20036;-84
2021/09/08 12:16:51;;;;;;;13.55;9.00;;;;;;;;;;4785521;30;20031;-84
2021/09/08 12:19:24;;;;;;;12.73;8.82;;;;;;;;;;4772663;30;20032;-83
2021/09/08 12:21:50;;;;;;;11.55;8.93;;;;;;;;;;4771796;30;20039;-83
2021/09/08 12:24:26;;;;;;;10.48;8.23;;;;;;;;;;4748316;30;20423;-82
2021/09/08 12:26:52;;;;;;;12.25;7.82;;;;;;;;;;4771620;30;20507;-83
2021/09/08 12:29:17;;;;;;;13.43;8.82;;;;;;;;;;4772414;30;20114;-83
2021/09/08 12:31:52;;;;;;;11.95;8.88;;;;;;;;;;4757182;30;20051;-83
2021/09/08 12:34:18;;;;;;;11.20;8.68;;;;;;;;;;4775622;30;20031;-83
2021/09/08 12:36:44;;;;;;;16.05;8.43;;;;;;;;;;4758489;30;20454;-83
2021/09/08 12:39:16;;;;;;;13.85;8.95;;;;;;;;;;4773622;30;20066;-83
2021/09/08 12:41:58;;;;;;;13.47;8.60;;;;;;;;;;4753795;30;20032;-83
2021/09/08 12:44:33;;;;;;;10.90;8.15;;;;;;;;;;4754951;30;20039;-82
2021/09/08 12:47:17;;;;;;;12.43;8.98;;;;;;;;;;4771663;30;20082;-83
2021/09/08 12:49:46;;;;;;;12.98;8.88;;;;;;;;;;4771035;30;20451;-83
2021/09/08 12:52:14;;;;;;;15.45;9.48;;;;;;;;;;4753398;30;20566;-83
2021/09/08 12:54:41;;;;;;;14.10;9.90;;;;;;;;;;4770947;30;20050;-83
2021/09/08 12:57:07;;;;;;;13.98;9.50;;;;;;;;;;4777810;29;20518;-83
2021/09/08 12:59:35;;;;;;;15.10;9.73;;;;;;;;;;4771576;30;20108;-83
2021/09/08 13:02:03;;;;;;;14.40;10.15;;;;;;;;;;4769731;30;20039;-81
2021/09/08 13:04:29;;;;;;;12.27;9.73;;;;;;;;;;4779948;30;20040;-82
2021/09/08 13:06:54;;;;;;;12.15;9.70;;;;;;;;;;4772248;30;20377;-83
2021/09/08 13:09:20;;;;;;;12.80;8.63;;;;;;;;;;4756989;30;20496;-81
2021/09/08 13:11:47;;;;;;;12.70;8.75;;;;;;;;;;4770121;30;20036;-83
2021/09/08 13:14:14;;;;;;;11.80;8.75;;;;;;;;;;4771853;30;20032;-83
2021/09/08 13:16:39;;;;;;;14.93;8.55;;;;;;;;;;4743721;30;20035;-82
2021/09/08 13:19:06;;;;;;;12.23;9.10;;;;;;;;;;4760063;30;20579;-83
2021/09/08 13:21:34;;;;;;;12.70;8.75;;;;;;;;;;4773396;30;20038;-83
2021/09/08 13:24:03;;;;;;;11.82;9.30;;;;;;;;;;4768315;30;20601;-84
2021/09/08 13:26:29;;;;;;;11.25;7.90;;;;;;;;;;4772576;30;20534;-83
2021/09/08 13:28:55;;;;;;;12.73;8.18;;;;;;;;;;4772715;30;20036;-83
2021/09/08 13:31:20;;;;;;;11.35;7.63;;;;;;;;;;4770388;30;20562;-83
2021/09/08 13:33:46;;;;;;;10.13;7.40;;;;;;;;;;4776332;30;20580;-82
2021/09/08 13:36:12;;;;;;;8.98;7.05;;;;;;;;;;4775070;30;20484;-83
2021/09/08 13:38:39;;;;;;;9.35;7.35;;;;;;;;;;4774342;30;20062;-84
2021/09/08 13:41:11;;;;;;;11.15;7.80;;;;;;;;;;4755809;30;20111;-82
2021/09/08 13:43:38;;;;;;;8.55;6.97;;;;;;;;;;4766617;30;20043;-82
2021/09/08 13:46:05;;;;;;;10.45;7.25;;;;;;;;;;4763463;30;20023;-82
2021/09/08 13:48:36;;;;;;;16.20;7.30;;;;;;;;;;4759377;30;20059;-84
2021/09/08 13:51:04;;;;;;;10.00;7.40;;;;;;;;;;4756362;30;20043;-83
2021/09/08 13:53:32;;;;;;;11.75;7.38;;;;;;;;;;4773723;29;20074;-83
2021/09/08 13:56:00;;;;;;;10.05;6.90;;;;;;;;;;4745113;30;20173;-83
2021/09/08 13:58:26;;;;;;;10.95;7.30;;;;;;;;;;4774431;30;20584;-83
2021/09/08 14:00:52;;;;;;;14.73;7.65;;;;;;;;;;4772484;30;20148;-81
2021/09/08 14:03:17;;;;;;;10.38;6.78;;;;;;;;;;4757622;30;20042;-82
2021/09/08 14:05:46;;;;;;;10.75;7.05;;;;;;;;;;4759277;30;20089;-83
2021/09/08 14:08:15;;;;;;;9.50;7.00;;;;;;;;;;4762064;30;20031;-83
2021/09/08 14:10:42;;;;;;;8.02;6.60;;;;;;;;;;4760432;30;20050;-82
2021/09/08 14:13:08;;;;;;;9.65;6.60;;;;;;;;;;4767906;30;20400;-83
2021/09/08 14:15:34;;;;;;;10.38;7.13;;;;;;;;;;4762720;30;20055;-83
2021/09/08 14:18:04;;;;;;;10.23;7.03;;;;;;;;;;4766492;30;20048;-83
2021/09/08 14:20:41;;;;;;;9.20;7.20;;;;;;;;;;4773474;30;20099;-83
2021/09/08 14:23:10;;;;;;;11.77;6.95;;;;;;;;;;4770294;30;20082;-82